createdAt,value
2016-09-22T00:00:34.894Z,0
2016-09-22T00:01:34.869Z,0
2016-09-22T00:02:34.848Z,0
2016-09-22T00:03:34.814Z,0
2016-09-22T00:04:34.789Z,0
2016-09-22T00:05:34.769Z,0
2016-09-22T00:06:34.746Z,0
2016-09-22T00:07:34.717Z,0
2016-09-22T00:08:34.687Z,0
2016-09-22T00:09:34.666Z,0
2016-09-22T00:10:34.639Z,0
2016-09-22T00:11:34.618Z,0
2016-09-22T00:12:34.587Z,0
2016-09-22T00:13:34.562Z,0
2016-09-22T00:14:34.539Z,0
2016-09-22T00:15:34.512Z,0
2016-09-22T00:16:34.498Z,0
2016-09-22T00:17:34.468Z,0
2016-09-22T00:18:34.443Z,0
2016-09-22T00:19:34.413Z,0
2016-09-22T00:20:34.394Z,0
2016-09-22T00:21:34.365Z,0
2016-09-22T00:22:34.336Z,0
2016-09-22T00:23:34.322Z,0
2016-09-22T00:24:34.293Z,0
2016-09-22T00:25:34.266Z,0
2016-09-22T00:26:34.255Z,0
2016-09-22T00:27:34.213Z,0
2016-09-22T00:28:34.190Z,0
2016-09-22T00:29:34.162Z,0
2016-09-22T00:30:34.147Z,0
2016-09-22T00:31:34.114Z,0
2016-09-22T00:32:34.091Z,0
2016-09-22T00:33:34.062Z,0
2016-09-22T00:34:34.038Z,0
2016-09-22T00:35:34.009Z,0
2016-09-22T00:36:33.997Z,0
2016-09-22T00:37:33.977Z,0
2016-09-22T00:38:33.930Z,0
2016-09-22T00:39:33.911Z,0
2016-09-22T00:40:33.886Z,0
2016-09-22T00:41:33.874Z,0
2016-09-22T00:42:33.840Z,0
2016-09-22T00:43:33.806Z,0
2016-09-22T00:44:33.786Z,0
2016-09-22T00:45:33.755Z,0
2016-09-22T00:46:33.735Z,0
2016-09-22T00:47:33.705Z,0
2016-09-22T00:48:33.685Z,0
2016-09-22T00:49:33.660Z,0
2016-09-22T00:50:33.632Z,0
2016-09-22T00:51:33.603Z,0
2016-09-22T00:52:33.577Z,0
2016-09-22T00:53:33.559Z,0
2016-09-22T00:54:33.528Z,0
2016-09-22T00:55:33.515Z,0
2016-09-22T00:56:33.481Z,0
2016-09-22T00:57:33.456Z,0
2016-09-22T00:58:33.433Z,0
2016-09-22T00:59:33.406Z,0
2016-09-22T01:00:33.383Z,0
2016-09-22T01:01:33.354Z,0
2016-09-22T01:02:33.329Z,0
2016-09-22T01:03:33.303Z,0
2016-09-22T01:04:33.279Z,0
2016-09-22T01:05:33.253Z,0
2016-09-22T01:06:33.529Z,0
2016-09-22T01:07:33.499Z,0
2016-09-22T01:08:33.191Z,0
2016-09-22T01:09:33.160Z,0
2016-09-22T01:10:33.121Z,0
2016-09-22T01:11:33.105Z,0
2016-09-22T01:12:33.073Z,0
2016-09-22T01:13:33.047Z,0
2016-09-22T01:14:33.031Z,0
2016-09-22T01:15:32.998Z,0
2016-09-22T01:16:32.974Z,0
2016-09-22T01:17:33.262Z,0
2016-09-22T01:18:32.933Z,0
2016-09-22T01:19:32.892Z,0
2016-09-22T01:20:32.878Z,0
2016-09-22T01:21:32.855Z,0
2016-09-22T01:22:32.834Z,0
2016-09-22T01:23:32.801Z,0
2016-09-22T01:24:32.777Z,0
2016-09-22T01:25:32.744Z,0
2016-09-22T01:26:32.717Z,0
2016-09-22T01:27:32.700Z,0
2016-09-22T01:28:32.665Z,0
2016-09-22T01:29:32.643Z,0
2016-09-22T01:30:32.624Z,0
2016-09-22T01:31:32.599Z,0
2016-09-22T01:32:32.569Z,0
2016-09-22T01:33:32.543Z,0
2016-09-22T01:34:32.522Z,0
2016-09-22T01:35:33.041Z,0
2016-09-22T01:36:32.482Z,0
2016-09-22T01:37:32.454Z,0
2016-09-22T01:38:32.418Z,0
2016-09-22T01:39:32.387Z,0
2016-09-22T01:40:32.360Z,0
2016-09-22T01:41:32.358Z,0
2016-09-22T01:42:32.313Z,0
2016-09-22T01:43:32.289Z,0
2016-09-22T01:44:32.266Z,0
2016-09-22T01:45:32.237Z,0
2016-09-22T01:46:32.207Z,0
2016-09-22T01:47:32.184Z,0
2016-09-22T01:48:32.175Z,0
2016-09-22T01:49:32.129Z,0
2016-09-22T01:50:32.106Z,0
2016-09-22T01:51:32.085Z,0
2016-09-22T01:52:32.060Z,0
2016-09-22T01:53:32.033Z,0
2016-09-22T01:54:32.011Z,0
2016-09-22T01:55:31.981Z,0
2016-09-22T01:56:31.952Z,0
2016-09-22T01:57:31.933Z,0
2016-09-22T01:58:31.906Z,0
2016-09-22T01:59:31.898Z,0
2016-09-22T02:00:31.853Z,0
2016-09-22T02:01:31.836Z,0
2016-09-22T02:02:32.121Z,0
2016-09-22T02:03:31.779Z,0
2016-09-22T02:04:31.762Z,0
2016-09-22T02:05:31.726Z,0
2016-09-22T02:06:31.710Z,0
2016-09-22T02:07:31.679Z,0
2016-09-22T02:08:31.654Z,0
2016-09-22T02:09:31.620Z,0
2016-09-22T02:10:31.600Z,0
2016-09-22T02:11:31.574Z,0
2016-09-22T02:12:31.542Z,0
2016-09-22T02:13:31.527Z,0
2016-09-22T02:14:31.502Z,0
2016-09-22T02:15:31.471Z,0
2016-09-22T02:16:31.443Z,0
2016-09-22T02:17:31.417Z,0
2016-09-22T02:18:31.392Z,0
2016-09-22T02:19:31.378Z,0
2016-09-22T02:20:31.341Z,0
2016-09-22T02:21:31.311Z,0
2016-09-22T02:22:31.288Z,0
2016-09-22T02:23:31.277Z,0
2016-09-22T02:24:31.246Z,0
2016-09-22T02:25:31.217Z,0
2016-09-22T02:26:31.187Z,0
2016-09-22T02:27:31.168Z,0
2016-09-22T02:28:31.132Z,0
2016-09-22T02:29:31.114Z,0
2016-09-22T02:30:31.085Z,0
2016-09-22T02:31:31.059Z,0
2016-09-22T02:32:31.033Z,0
2016-09-22T02:33:31.007Z,0
2016-09-22T02:34:30.981Z,0
2016-09-22T02:35:30.954Z,0
2016-09-22T02:36:30.935Z,0
2016-09-22T02:37:30.904Z,0
2016-09-22T02:38:30.881Z,0
2016-09-22T02:39:30.858Z,0
2016-09-22T02:40:30.831Z,0
2016-09-22T02:41:30.803Z,0
2016-09-22T02:42:30.781Z,0
2016-09-22T02:43:30.752Z,0
2016-09-22T02:44:30.735Z,0
2016-09-22T02:45:30.706Z,0
2016-09-22T02:46:30.678Z,0
2016-09-22T02:47:30.656Z,0
2016-09-22T02:48:30.641Z,0
2016-09-22T02:49:30.601Z,0
2016-09-22T02:50:30.570Z,0
2016-09-22T02:51:30.542Z,0
2016-09-22T02:52:30.522Z,0
2016-09-22T02:53:30.489Z,0
2016-09-22T02:54:30.468Z,0
2016-09-22T02:55:30.443Z,0
2016-09-22T02:56:30.418Z,0
2016-09-22T02:57:30.397Z,0
2016-09-22T02:58:30.391Z,0
2016-09-22T02:59:30.337Z,0
2016-09-22T03:00:30.311Z,0
2016-09-22T03:01:30.290Z,0
2016-09-22T03:02:30.270Z,0
2016-09-22T03:03:30.238Z,0
2016-09-22T03:04:30.212Z,0
2016-09-22T03:05:30.184Z,0
2016-09-22T03:06:30.162Z,0
2016-09-22T03:07:30.131Z,0
2016-09-22T03:08:30.113Z,0
2016-09-22T03:09:30.103Z,0
2016-09-22T03:10:30.074Z,0
2016-09-22T03:11:30.033Z,0
2016-09-22T03:12:30.001Z,0
2016-09-22T03:13:29.981Z,0
2016-09-22T03:14:29.951Z,0
2016-09-22T03:15:29.929Z,0
2016-09-22T03:16:29.903Z,0
2016-09-22T03:17:29.873Z,0
2016-09-22T03:18:29.853Z,0
2016-09-22T03:19:29.819Z,0
2016-09-22T03:20:29.799Z,0
2016-09-22T03:21:29.791Z,0
2016-09-22T03:22:29.753Z,0
2016-09-22T03:23:29.721Z,0
2016-09-22T03:24:30.008Z,0
2016-09-22T03:25:29.669Z,0
2016-09-22T03:26:29.648Z,0
2016-09-22T03:27:29.623Z,0
2016-09-22T03:28:29.593Z,0
2016-09-22T03:29:29.570Z,0
2016-09-22T03:30:29.541Z,0
2016-09-22T03:31:29.825Z,0
2016-09-22T03:32:29.505Z,0
2016-09-22T03:33:29.464Z,0
2016-09-22T03:34:29.439Z,0
2016-09-22T03:35:29.423Z,0
2016-09-22T03:36:29.384Z,0
2016-09-22T03:37:29.378Z,0
2016-09-22T03:38:29.334Z,0
2016-09-22T03:39:29.311Z,0
2016-09-22T03:40:29.287Z,0
2016-09-22T03:41:29.258Z,0
2016-09-22T03:42:29.232Z,0
2016-09-22T03:43:29.206Z,0
2016-09-22T03:44:29.178Z,0
2016-09-22T03:45:29.155Z,0
2016-09-22T03:46:29.144Z,0
2016-09-22T03:47:29.100Z,0
2016-09-22T03:48:29.077Z,0
2016-09-22T03:49:29.049Z,0
2016-09-22T03:50:29.020Z,0
2016-09-22T03:51:28.996Z,0
2016-09-22T03:52:28.972Z,0
2016-09-22T03:53:28.951Z,0
2016-09-22T03:54:28.925Z,0
2016-09-22T03:55:28.886Z,0
2016-09-22T03:56:28.868Z,0
2016-09-22T03:57:28.845Z,0
2016-09-22T03:58:28.834Z,0
2016-09-22T03:59:28.785Z,0
2016-09-22T04:00:28.760Z,0
2016-09-22T04:01:28.736Z,0
2016-09-22T04:02:28.713Z,0
2016-09-22T04:03:28.695Z,0
2016-09-22T04:04:28.662Z,0
2016-09-22T04:05:28.633Z,0
2016-09-22T04:06:28.611Z,0
2016-09-22T04:07:28.578Z,0
2016-09-22T04:08:28.558Z,0
2016-09-22T04:09:28.530Z,0
2016-09-22T04:10:28.507Z,0
2016-09-22T04:11:28.474Z,0
2016-09-22T04:12:28.449Z,0
2016-09-22T04:13:28.443Z,0
2016-09-22T04:14:28.398Z,0
2016-09-22T04:15:28.383Z,0
2016-09-22T04:16:28.348Z,0
2016-09-22T04:17:28.332Z,0
2016-09-22T04:18:28.297Z,0
2016-09-22T04:19:28.266Z,0
2016-09-22T04:20:28.243Z,0
2016-09-22T04:21:28.218Z,0
2016-09-22T04:22:28.199Z,0
2016-09-22T04:23:28.165Z,0
2016-09-22T04:24:28.137Z,0
2016-09-22T04:25:28.115Z,0
2016-09-22T04:26:28.086Z,0
2016-09-22T04:27:28.059Z,0
2016-09-22T04:28:28.031Z,0
2016-09-22T04:29:28.007Z,0
2016-09-22T04:30:27.985Z,0
2016-09-22T04:31:27.959Z,0
2016-09-22T04:32:27.955Z,0
2016-09-22T04:33:27.907Z,0
2016-09-22T04:34:27.876Z,0
2016-09-22T04:35:27.869Z,0
2016-09-22T04:36:27.826Z,0
2016-09-22T04:37:27.816Z,0
2016-09-22T04:38:27.775Z,0
2016-09-22T04:39:27.745Z,0
2016-09-22T04:40:27.723Z,0
2016-09-22T04:41:27.693Z,0
2016-09-22T04:42:27.670Z,0
2016-09-22T04:43:27.649Z,0
2016-09-22T04:44:27.620Z,0
2016-09-22T04:45:27.615Z,0
2016-09-22T04:46:27.567Z,0
2016-09-22T04:47:27.544Z,0
2016-09-22T04:48:27.518Z,0
2016-09-22T04:49:27.488Z,0
2016-09-22T04:50:27.458Z,0
2016-09-22T04:51:27.439Z,0
2016-09-22T04:52:27.426Z,0
2016-09-22T04:53:27.384Z,0
2016-09-22T04:54:27.356Z,0
2016-09-22T04:55:27.332Z,0
2016-09-22T04:56:27.305Z,0
2016-09-22T04:57:27.281Z,0
2016-09-22T04:58:27.250Z,0
2016-09-22T04:59:27.226Z,0
2016-09-22T05:00:27.206Z,0
2016-09-22T05:01:27.177Z,0
2016-09-22T05:02:27.167Z,5
2016-09-22T05:03:27.173Z,5
2016-09-22T05:04:27.100Z,5
2016-09-22T05:05:27.072Z,5
2016-09-22T05:06:27.044Z,5
2016-09-22T05:07:27.024Z,5
2016-09-22T05:08:26.995Z,5
2016-09-22T05:09:26.970Z,10
2016-09-22T05:10:26.950Z,10
2016-09-22T05:11:26.915Z,10
2016-09-22T05:12:26.894Z,10
2016-09-22T05:13:26.861Z,10
2016-09-22T05:14:26.837Z,10
2016-09-22T05:15:26.815Z,15
2016-09-22T05:16:26.778Z,15
2016-09-22T05:17:26.763Z,15
2016-09-22T05:18:26.736Z,20
2016-09-22T05:19:27.636Z,20
2016-09-22T05:20:26.680Z,20
2016-09-22T05:21:26.667Z,20
2016-09-22T05:22:26.632Z,25
2016-09-22T05:23:26.604Z,25
2016-09-22T05:24:26.578Z,25
2016-09-22T05:25:26.551Z,30
2016-09-22T05:26:26.525Z,30
2016-09-22T05:27:26.507Z,35
2016-09-22T05:28:26.472Z,35
2016-09-22T05:29:26.459Z,40
2016-09-22T05:30:26.421Z,40
2016-09-22T05:31:26.398Z,45
2016-09-22T05:32:26.379Z,45
2016-09-22T05:33:26.353Z,50
2016-09-22T05:34:26.319Z,55
2016-09-22T05:35:26.290Z,55
2016-09-22T05:36:26.588Z,55
2016-09-22T05:37:26.240Z,60
2016-09-22T05:38:26.224Z,60
2016-09-22T05:39:26.189Z,60
2016-09-22T05:40:26.162Z,65
2016-09-22T05:41:26.144Z,65
2016-09-22T05:42:26.118Z,70
2016-09-22T05:43:26.102Z,70
2016-09-22T05:44:26.061Z,75
2016-09-22T05:45:26.031Z,75
2016-09-22T05:46:26.016Z,80
2016-09-22T05:47:25.979Z,80
2016-09-22T05:48:25.959Z,85
2016-09-22T05:49:25.933Z,85
2016-09-22T05:50:25.904Z,85
2016-09-22T05:51:25.882Z,90
2016-09-22T05:52:25.853Z,95
2016-09-22T05:53:25.841Z,95
2016-09-22T05:54:25.811Z,100
2016-09-22T05:55:25.779Z,105
2016-09-22T05:56:25.756Z,105
2016-09-22T05:57:25.726Z,110
2016-09-22T05:58:25.715Z,110
2016-09-22T05:59:25.678Z,115
2016-09-22T06:00:25.657Z,120
2016-09-22T06:01:25.629Z,120
2016-09-22T06:02:25.599Z,125
2016-09-22T06:03:25.581Z,125
2016-09-22T06:04:25.551Z,130
2016-09-22T06:05:25.825Z,130
2016-09-22T06:06:25.502Z,135
2016-09-22T06:07:25.471Z,135
2016-09-22T06:08:25.457Z,135
2016-09-22T06:09:25.425Z,140
2016-09-22T06:10:25.404Z,140
2016-09-22T06:11:25.374Z,145
2016-09-22T06:12:25.343Z,145
2016-09-22T06:13:25.334Z,150
2016-09-22T06:14:25.300Z,150
2016-09-22T06:15:25.275Z,155
2016-09-22T06:16:25.244Z,160
2016-09-22T06:17:25.219Z,165
2016-09-22T06:18:25.195Z,170
2016-09-22T06:19:25.164Z,170
2016-09-22T06:20:25.147Z,175
2016-09-22T06:21:25.118Z,180
2016-09-22T06:22:25.103Z,180
2016-09-22T06:23:25.076Z,185
2016-09-22T06:24:25.043Z,185
2016-09-22T06:25:25.020Z,190
2016-09-22T06:26:24.993Z,195
2016-09-22T06:27:24.984Z,200
2016-09-22T06:28:25.244Z,200
2016-09-22T06:29:24.920Z,200
2016-09-22T06:30:24.903Z,205
2016-09-22T06:31:24.869Z,205
2016-09-22T06:32:24.845Z,210
2016-09-22T06:33:24.817Z,210
2016-09-22T06:34:24.807Z,215
2016-09-22T06:35:24.770Z,215
2016-09-22T06:36:24.745Z,215
2016-09-22T06:37:24.721Z,220
2016-09-22T06:38:24.695Z,225
2016-09-22T06:39:24.671Z,230
2016-09-22T06:40:24.648Z,235
2016-09-22T06:41:24.624Z,240
2016-09-22T06:42:24.595Z,240
2016-09-22T06:43:24.569Z,245
2016-09-22T06:44:24.549Z,255
2016-09-22T06:45:24.532Z,260
2016-09-22T06:46:24.500Z,270
2016-09-22T06:47:24.483Z,275
2016-09-22T06:48:24.753Z,275
2016-09-22T06:49:24.433Z,280
2016-09-22T06:50:24.404Z,280
2016-09-22T06:51:24.386Z,285
2016-09-22T06:52:24.362Z,285
2016-09-22T06:53:24.330Z,290
2016-09-22T06:54:24.309Z,295
2016-09-22T06:55:24.280Z,295
2016-09-22T06:56:24.263Z,300
2016-09-22T06:57:25.218Z,300
2016-09-22T06:58:24.207Z,300
2016-09-22T06:59:24.185Z,305
2016-09-22T07:00:24.164Z,305
2016-09-22T07:01:24.142Z,310
2016-09-22T07:02:24.109Z,310
2016-09-22T07:03:24.092Z,315
2016-09-22T07:04:24.065Z,315
2016-09-22T07:05:24.034Z,320
2016-09-22T07:06:24.015Z,320
2016-09-22T07:07:24.285Z,320
2016-09-22T07:08:23.968Z,325
2016-09-22T07:09:23.950Z,325
2016-09-22T07:10:23.914Z,330
2016-09-22T07:11:23.895Z,330
2016-09-22T07:12:23.868Z,335
2016-09-22T07:13:23.850Z,335
2016-09-22T07:14:23.824Z,340
2016-09-22T07:15:23.796Z,340
2016-09-22T07:16:23.774Z,345
2016-09-22T07:17:23.752Z,345
2016-09-22T07:18:23.733Z,345
2016-09-22T07:19:23.704Z,350
2016-09-22T07:20:23.692Z,350
2016-09-22T07:21:23.668Z,350
2016-09-22T07:22:23.635Z,350
2016-09-22T07:23:23.640Z,355
2016-09-22T07:24:23.591Z,355
2016-09-22T07:25:23.572Z,355
2016-09-22T07:26:23.543Z,355
2016-09-22T07:27:23.527Z,360
2016-09-22T07:28:23.498Z,360
2016-09-22T07:29:23.475Z,360
2016-09-22T07:30:23.449Z,365
2016-09-22T07:31:23.421Z,365
2016-09-22T07:32:23.409Z,370
2016-09-22T07:33:23.386Z,370
2016-09-22T07:34:23.368Z,375
2016-09-22T07:35:23.346Z,375
2016-09-22T07:36:23.319Z,375
2016-09-22T07:37:23.300Z,375
2016-09-22T07:38:23.270Z,375
2016-09-22T07:39:23.248Z,380
2016-09-22T07:40:23.227Z,380
2016-09-22T07:41:23.216Z,385
2016-09-22T07:42:23.179Z,385
2016-09-22T07:43:23.155Z,385
2016-09-22T07:44:23.133Z,390
2016-09-22T07:45:23.115Z,390
2016-09-22T07:46:23.090Z,390
2016-09-22T07:47:23.080Z,390
2016-09-22T07:48:23.046Z,390
2016-09-22T07:49:23.022Z,390
2016-09-22T07:50:23.001Z,395
2016-09-22T07:51:22.990Z,395
2016-09-22T07:52:22.954Z,395
2016-09-22T07:53:22.934Z,395
2016-09-22T07:54:22.912Z,395
2016-09-22T07:55:22.885Z,395
2016-09-22T07:56:22.961Z,400
2016-09-22T07:57:22.849Z,400
2016-09-22T07:58:22.818Z,400
2016-09-22T07:59:22.799Z,405
2016-09-22T08:00:22.782Z,405
2016-09-22T08:01:22.756Z,405
2016-09-22T08:02:22.736Z,405
2016-09-22T08:03:22.718Z,405
2016-09-22T08:04:22.693Z,405
2016-09-22T08:05:22.668Z,405
2016-09-22T08:06:22.648Z,405
2016-09-22T08:07:22.634Z,405
2016-09-22T08:08:22.603Z,405
2016-09-22T08:09:22.584Z,405
2016-09-22T08:10:22.561Z,405
2016-09-22T08:11:22.546Z,410
2016-09-22T08:12:22.526Z,415
2016-09-22T08:13:22.497Z,410
2016-09-22T08:14:22.471Z,410
2016-09-22T08:15:22.461Z,415
2016-09-22T08:16:22.427Z,415
2016-09-22T08:17:22.410Z,415
2016-09-22T08:18:22.412Z,415
2016-09-22T08:19:22.366Z,420
2016-09-22T08:20:22.350Z,420
2016-09-22T08:21:22.325Z,420
2016-09-22T08:22:22.311Z,425
2016-09-22T08:23:22.294Z,425
2016-09-22T08:24:22.263Z,425
2016-09-22T08:25:22.241Z,425
2016-09-22T08:26:22.246Z,430
2016-09-22T08:27:22.212Z,430
2016-09-22T08:28:22.187Z,430
2016-09-22T08:29:22.164Z,430
2016-09-22T08:30:22.143Z,430
2016-09-22T08:31:22.124Z,435
2016-09-22T08:32:22.093Z,435
2016-09-22T08:33:22.079Z,440
2016-09-22T08:34:22.142Z,440
2016-09-22T08:35:22.048Z,445
2016-09-22T08:36:22.015Z,445
2016-09-22T08:37:21.990Z,445
2016-09-22T08:38:21.979Z,450
2016-09-22T08:39:21.960Z,450
2016-09-22T08:40:21.937Z,455
2016-09-22T08:41:21.916Z,455
2016-09-22T08:42:21.891Z,460
2016-09-22T08:43:21.881Z,460
2016-09-22T08:44:21.858Z,455
2016-09-22T08:45:21.836Z,460
2016-09-22T08:46:21.820Z,460
2016-09-22T08:47:21.809Z,465
2016-09-22T08:48:21.772Z,465
2016-09-22T08:49:21.750Z,470
2016-09-22T08:50:21.735Z,470
2016-09-22T08:51:21.713Z,475
2016-09-22T08:52:21.715Z,475
2016-09-22T08:53:21.668Z,485
2016-09-22T08:54:21.666Z,480
2016-09-22T08:55:21.643Z,475
2016-09-22T08:56:21.614Z,475
2016-09-22T08:57:21.596Z,475
2016-09-22T08:58:21.576Z,480
2016-09-22T08:59:21.560Z,480
2016-09-22T09:00:21.548Z,485
2016-09-22T09:01:21.981Z,480
2016-09-22T09:02:21.499Z,480
2016-09-22T09:03:21.796Z,480
2016-09-22T09:04:21.465Z,480
2016-09-22T09:05:21.444Z,475
2016-09-22T09:06:21.421Z,470
2016-09-22T09:07:21.403Z,470
2016-09-22T09:08:21.380Z,465
2016-09-22T09:09:21.368Z,465
2016-09-22T09:10:21.347Z,460
2016-09-22T09:11:21.319Z,450
2016-09-22T09:12:21.310Z,450
2016-09-22T09:13:21.292Z,470
2016-09-22T09:14:21.271Z,470
2016-09-22T09:15:21.245Z,470
2016-09-22T09:16:21.228Z,475
2016-09-22T09:17:21.518Z,475
2016-09-22T09:18:21.189Z,480
2016-09-22T09:19:21.168Z,475
2016-09-22T09:20:21.152Z,475
2016-09-22T09:21:21.552Z,480
2016-09-22T09:22:21.114Z,485
2016-09-22T09:23:21.100Z,485
2016-09-22T09:24:21.077Z,485
2016-09-22T09:25:21.059Z,485
2016-09-22T09:26:21.034Z,480
2016-09-22T09:27:21.019Z,490
2016-09-22T09:28:21.012Z,485
2016-09-22T09:29:20.985Z,485
2016-09-22T09:30:20.962Z,485
2016-09-22T09:31:20.937Z,490
2016-09-22T09:32:20.922Z,490
2016-09-22T09:33:20.908Z,495
2016-09-22T09:34:20.885Z,490
2016-09-22T09:35:20.869Z,490
2016-09-22T09:36:20.848Z,490
2016-09-22T09:37:20.833Z,495
2016-09-22T09:38:20.814Z,490
2016-09-22T09:39:20.793Z,500
2016-09-22T09:40:20.782Z,500
2016-09-22T09:41:20.757Z,500
2016-09-22T09:42:20.749Z,495
2016-09-22T09:43:20.717Z,500
2016-09-22T09:44:20.715Z,480
2016-09-22T09:45:20.687Z,475
2016-09-22T09:46:20.668Z,485
2016-09-22T09:47:20.645Z,490
2016-09-22T09:48:20.628Z,495
2016-09-22T09:49:20.905Z,500
2016-09-22T09:50:20.605Z,500
2016-09-22T09:51:20.570Z,500
2016-09-22T09:52:20.555Z,505
2016-09-22T09:53:20.535Z,505
2016-09-22T09:54:20.516Z,510
2016-09-22T09:55:20.801Z,515
2016-09-22T09:56:20.476Z,520
2016-09-22T09:57:20.472Z,525
2016-09-22T09:58:20.739Z,530
2016-09-22T09:59:20.428Z,530
2016-09-22T10:00:20.410Z,540
2016-09-22T10:01:20.392Z,535
2016-09-22T10:02:20.375Z,545
2016-09-22T10:03:20.351Z,545
2016-09-22T10:04:20.339Z,545
2016-09-22T10:05:20.320Z,550
2016-09-22T10:06:20.300Z,550
2016-09-22T10:07:20.283Z,555
2016-09-22T10:08:20.268Z,555
2016-09-22T10:09:20.251Z,565
2016-09-22T10:10:20.231Z,580
2016-09-22T10:11:20.215Z,580
2016-09-22T10:12:20.197Z,580
2016-09-22T10:13:20.175Z,585
2016-09-22T10:14:20.157Z,590
2016-09-22T10:15:20.144Z,600
2016-09-22T10:16:20.127Z,620
2016-09-22T10:17:20.102Z,625
2016-09-22T10:18:20.092Z,620
2016-09-22T10:19:20.072Z,625
2016-09-22T10:20:20.060Z,625
2016-09-22T10:21:20.333Z,635
2016-09-22T10:22:20.023Z,650
2016-09-22T10:23:20.000Z,675
2016-09-22T10:24:19.989Z,690
2016-09-22T10:25:19.972Z,700
2016-09-22T10:26:19.954Z,680
2016-09-22T10:27:19.944Z,685
2016-09-22T10:28:19.927Z,700
2016-09-22T10:29:19.908Z,710
2016-09-22T10:30:19.885Z,720
2016-09-22T10:31:19.881Z,735
2016-09-22T10:32:19.848Z,740
2016-09-22T10:33:19.829Z,730
2016-09-22T10:34:19.818Z,720
2016-09-22T10:35:19.803Z,725
2016-09-22T10:36:19.789Z,735
2016-09-22T10:37:19.770Z,725
2016-09-22T10:38:19.761Z,725
2016-09-22T10:39:19.734Z,715
2016-09-22T10:40:19.719Z,715
2016-09-22T10:41:19.703Z,720
2016-09-22T10:42:19.682Z,725
2016-09-22T10:43:19.673Z,735
2016-09-22T10:44:19.651Z,745
2016-09-22T10:45:19.636Z,750
2016-09-22T10:46:19.616Z,755
2016-09-22T10:47:19.604Z,755
2016-09-22T10:48:19.591Z,745
2016-09-22T10:49:19.573Z,745
2016-09-22T10:50:19.558Z,745
2016-09-22T10:51:19.540Z,745
2016-09-22T10:52:19.525Z,750
2016-09-22T10:53:19.503Z,755
2016-09-22T10:54:19.492Z,750
2016-09-22T10:55:19.475Z,745
2016-09-22T10:56:19.757Z,740
2016-09-22T10:57:19.444Z,735
2016-09-22T10:58:19.428Z,740
2016-09-22T10:59:19.469Z,740
2016-09-22T11:00:19.405Z,730
2016-09-22T11:01:19.389Z,715
2016-09-22T11:02:19.367Z,705
2016-09-22T11:03:19.351Z,700
2016-09-22T11:04:19.336Z,690
2016-09-22T11:05:19.324Z,680
2016-09-22T11:06:19.312Z,670
2016-09-22T11:07:19.292Z,660
2016-09-22T11:08:19.272Z,650
2016-09-22T11:09:19.258Z,670
2016-09-22T11:10:19.246Z,695
2016-09-22T11:11:19.222Z,695
2016-09-22T11:12:19.213Z,685
2016-09-22T11:13:19.190Z,685
2016-09-22T11:14:19.185Z,680
2016-09-22T11:15:19.164Z,680
2016-09-22T11:16:19.150Z,675
2016-09-22T11:17:19.149Z,670
2016-09-22T11:18:19.115Z,660
2016-09-22T11:19:19.112Z,660
2016-09-22T11:20:19.086Z,665
2016-09-22T11:21:19.069Z,685
2016-09-22T11:22:19.048Z,685
2016-09-22T11:23:19.038Z,690
2016-09-22T11:24:19.024Z,690
2016-09-22T11:25:19.005Z,695
2016-09-22T11:26:18.987Z,700
2016-09-22T11:27:18.973Z,715
2016-09-22T11:28:18.956Z,725
2016-09-22T11:29:18.941Z,735
2016-09-22T11:30:18.927Z,730
2016-09-22T11:31:18.915Z,725
2016-09-22T11:32:18.898Z,730
2016-09-22T11:33:18.881Z,730
2016-09-22T11:34:18.864Z,725
2016-09-22T11:35:18.850Z,715
2016-09-22T11:36:18.830Z,725
2016-09-22T11:37:18.815Z,740
2016-09-22T11:38:19.365Z,740
2016-09-22T11:39:18.788Z,740
2016-09-22T11:40:18.773Z,745
2016-09-22T11:41:18.748Z,755
2016-09-22T11:42:18.741Z,755
2016-09-22T11:43:18.719Z,755
2016-09-22T11:44:18.712Z,750
2016-09-22T11:45:19.120Z,745
2016-09-22T11:46:19.200Z,735
2016-09-22T11:47:19.531Z,715
2016-09-22T11:48:18.663Z,700
2016-09-22T11:49:18.628Z,710
2016-09-22T11:50:18.613Z,710
2016-09-22T11:51:18.603Z,690
2016-09-22T11:52:18.588Z,685
2016-09-22T11:53:18.574Z,685
2016-09-22T11:54:18.565Z,695
2016-09-22T11:55:18.543Z,695
2016-09-22T11:56:18.519Z,695
2016-09-22T11:57:18.506Z,700
2016-09-22T11:58:18.613Z,700
2016-09-22T11:59:18.474Z,700
2016-09-22T12:00:18.463Z,695
2016-09-22T12:01:18.443Z,695
2016-09-22T12:02:18.431Z,690
2016-09-22T12:03:18.414Z,685
2016-09-22T12:04:18.402Z,675
2016-09-22T12:05:18.390Z,665
2016-09-22T12:06:18.368Z,650
2016-09-22T12:07:18.377Z,650
2016-09-22T12:08:18.332Z,645
2016-09-22T12:09:18.322Z,645
2016-09-22T12:10:18.602Z,650
2016-09-22T12:11:18.298Z,645
2016-09-22T12:12:18.279Z,645
2016-09-22T12:13:18.258Z,655
2016-09-22T12:14:18.247Z,655
2016-09-22T12:15:19.225Z,630
2016-09-22T12:16:18.227Z,630
2016-09-22T12:17:18.210Z,640
2016-09-22T12:18:18.177Z,645
2016-09-22T12:19:18.169Z,660
2016-09-22T12:20:18.150Z,680
2016-09-22T12:21:18.139Z,690
2016-09-22T12:22:18.119Z,700
2016-09-22T12:23:18.107Z,695
2016-09-22T12:24:18.091Z,680
2016-09-22T12:25:18.076Z,675
2016-09-22T12:26:18.061Z,665
2016-09-22T12:27:18.042Z,660
2016-09-22T12:28:18.031Z,655
2016-09-22T12:29:18.008Z,665
2016-09-22T12:30:18.007Z,685
2016-09-22T12:31:17.993Z,690
2016-09-22T12:32:17.967Z,705
2016-09-22T12:33:17.966Z,715
2016-09-22T12:34:17.970Z,720
2016-09-22T12:35:17.919Z,725
2016-09-22T12:36:17.902Z,725
2016-09-22T12:37:17.886Z,720
2016-09-22T12:38:17.888Z,715
2016-09-22T12:39:17.860Z,715
2016-09-22T12:40:17.854Z,715
2016-09-22T12:41:17.832Z,715
2016-09-22T12:42:17.826Z,720
2016-09-22T12:43:17.807Z,725
2016-09-22T12:44:17.781Z,730
2016-09-22T12:45:17.772Z,735
2016-09-22T12:46:17.749Z,740
2016-09-22T12:47:17.744Z,740
2016-09-22T12:48:17.728Z,750
2016-09-22T12:49:17.710Z,750
2016-09-22T12:50:17.704Z,755
2016-09-22T12:51:17.678Z,755
2016-09-22T12:52:17.898Z,760
2016-09-22T12:53:17.655Z,760
2016-09-22T12:54:17.643Z,760
2016-09-22T12:55:17.623Z,765
2016-09-22T12:56:17.612Z,770
2016-09-22T12:57:17.592Z,775
2016-09-22T12:58:17.583Z,780
2016-09-22T12:59:17.570Z,780
2016-09-22T13:00:17.548Z,775
2016-09-22T13:01:17.529Z,770
2016-09-22T13:02:17.516Z,765
2016-09-22T13:03:17.802Z,755
2016-09-22T13:04:17.487Z,745
2016-09-22T13:05:17.482Z,735
2016-09-22T13:06:17.460Z,730
2016-09-22T13:07:17.446Z,725
2016-09-22T13:08:17.436Z,710
2016-09-22T13:09:17.534Z,705
2016-09-22T13:10:17.410Z,690
2016-09-22T13:11:17.388Z,695
2016-09-22T13:12:17.384Z,695
2016-09-22T13:13:17.350Z,695
2016-09-22T13:14:17.346Z,705
2016-09-22T13:15:17.327Z,705
2016-09-22T13:16:17.313Z,700
2016-09-22T13:17:17.302Z,710
2016-09-22T13:18:17.286Z,710
2016-09-22T13:19:17.270Z,720
2016-09-22T13:20:17.250Z,720
2016-09-22T13:21:17.242Z,720
2016-09-22T13:22:17.224Z,710
2016-09-22T13:23:17.214Z,705
2016-09-22T13:24:17.194Z,700
2016-09-22T13:25:17.186Z,700
2016-09-22T13:26:17.168Z,695
2016-09-22T13:27:17.166Z,680
2016-09-22T13:28:17.135Z,675
2016-09-22T13:29:17.127Z,675
2016-09-22T13:30:17.116Z,675
2016-09-22T13:31:17.096Z,675
2016-09-22T13:32:17.078Z,670
2016-09-22T13:33:17.071Z,670
2016-09-22T13:34:17.044Z,670
2016-09-22T13:35:17.036Z,670
2016-09-22T13:36:17.016Z,665
2016-09-22T13:37:17.010Z,655
2016-09-22T13:38:16.996Z,655
2016-09-22T13:39:16.977Z,655
2016-09-22T13:40:16.968Z,645
2016-09-22T13:41:16.948Z,635
2016-09-22T13:42:16.931Z,635
2016-09-22T13:43:16.926Z,635
2016-09-22T13:44:16.903Z,635
2016-09-22T13:45:16.892Z,645
2016-09-22T13:46:16.876Z,660
2016-09-22T13:47:16.855Z,670
2016-09-22T13:48:16.846Z,680
2016-09-22T13:49:16.826Z,675
2016-09-22T13:50:16.819Z,675
2016-09-22T13:51:16.835Z,675
2016-09-22T13:52:16.840Z,685
2016-09-22T13:53:16.776Z,690
2016-09-22T13:54:16.754Z,705
2016-09-22T13:55:16.745Z,715
2016-09-22T13:56:16.727Z,725
2016-09-22T13:57:16.716Z,730
2016-09-22T13:58:16.701Z,735
2016-09-22T13:59:16.682Z,735
2016-09-22T14:00:16.673Z,735
2016-09-22T14:01:16.665Z,740
2016-09-22T14:02:16.643Z,740
2016-09-22T14:03:16.642Z,740
2016-09-22T14:04:16.610Z,735
2016-09-22T14:05:16.600Z,735
2016-09-22T14:06:16.588Z,730
2016-09-22T14:07:16.567Z,725
2016-09-22T14:08:16.555Z,715